createdAt,value
2023-05-20T00:02:04.119Z,55.99
2023-05-20T00:04:31.083Z,56.56
2023-05-20T00:06:58.096Z,56.48
2023-05-20T00:09:24.984Z,56.29
2023-05-20T00:11:51.863Z,56.19
2023-05-20T00:14:18.715Z,56.26
2023-05-20T00:16:45.651Z,56.64
2023-05-20T00:19:12.385Z,56.50
2023-05-20T00:21:39.207Z,56.47
2023-05-20T00:24:06.256Z,56.55
2023-05-20T00:26:32.832Z,56.68
2023-05-20T00:28:59.600Z,56.52
2023-05-20T00:31:26.363Z,56.91
2023-05-20T00:33:53.422Z,56.85
2023-05-20T00:36:20.705Z,56.68
2023-05-20T00:38:47.569Z,56.96
2023-05-20T00:41:14.190Z,57.00
2023-05-20T00:43:41.468Z,56.88
2023-05-20T00:46:08.744Z,56.80
2023-05-20T00:48:43.936Z,56.61
2023-05-20T00:51:14.767Z,56.99
2023-05-20T00:53:42.292Z,56.75
2023-05-20T00:56:09.802Z,56.68
2023-05-20T00:58:38.027Z,56.96
2023-05-20T01:01:06.154Z,56.89
2023-05-20T01:03:33.607Z,56.66
2023-05-20T01:06:01.221Z,56.75
2023-05-20T01:08:28.808Z,56.87
2023-05-20T01:11:03.755Z,56.92
2023-05-20T01:13:37.000Z,57.20
2023-05-20T01:16:04.574Z,57.05
2023-05-20T01:18:33.190Z,56.92
2023-05-20T01:21:02.586Z,56.96
2023-05-20T01:23:40.054Z,56.80
2023-05-20T01:26:08.856Z,57.22
2023-05-20T01:28:38.707Z,56.93
2023-05-20T01:31:10.274Z,57.46
2023-05-20T01:33:42.020Z,57.28
2023-05-20T01:36:10.102Z,57.30
2023-05-20T01:38:40.077Z,57.34
2023-05-20T01:41:07.385Z,57.09
2023-05-20T01:43:35.024Z,57.03
2023-05-20T01:46:02.973Z,57.38
2023-05-20T01:48:29.762Z,57.10
2023-05-20T01:50:56.907Z,57.30
2023-05-20T01:53:23.642Z,57.32
2023-05-20T01:55:50.498Z,56.96
2023-05-20T01:58:17.277Z,57.45
2023-05-20T02:00:44.085Z,57.59
2023-05-20T02:03:11.359Z,57.38
2023-05-20T02:05:39.009Z,57.69
2023-05-20T02:08:06.465Z,57.17
2023-05-20T02:10:33.428Z,57.32
2023-05-20T02:13:00.457Z,57.31
2023-05-20T02:15:27.349Z,57.52
2023-05-20T02:17:54.973Z,57.53
2023-05-20T02:20:22.018Z,57.57
2023-05-20T02:22:48.854Z,57.90
2023-05-20T02:25:15.649Z,57.61
2023-05-20T02:27:43.677Z,57.73
2023-05-20T02:30:10.651Z,57.92
2023-05-20T02:32:38.285Z,57.87
2023-05-20T02:35:05.767Z,57.92
2023-05-20T02:37:32.666Z,57.59
2023-05-20T02:39:59.368Z,57.87
2023-05-20T02:42:26.135Z,57.55
2023-05-20T02:44:56.614Z,57.39
2023-05-20T02:47:23.700Z,57.39
2023-05-20T02:49:50.560Z,57.66
2023-05-20T02:52:17.393Z,57.60
2023-05-20T02:54:44.440Z,57.39
2023-05-20T02:57:11.383Z,57.51
2023-05-20T02:59:38.322Z,57.66
2023-05-20T03:02:05.486Z,57.29
2023-05-20T03:04:32.524Z,57.36
2023-05-20T03:06:59.491Z,57.63
2023-05-20T03:09:26.527Z,57.44
2023-05-20T03:11:53.320Z,57.24
2023-05-20T03:14:19.916Z,57.55
2023-05-20T03:16:46.734Z,57.72
2023-05-20T03:19:13.590Z,57.61
2023-05-20T03:21:40.301Z,57.30
2023-05-20T03:24:07.996Z,57.66
2023-05-20T03:26:37.565Z,57.59
2023-05-20T03:29:05.621Z,57.45
2023-05-20T03:31:32.559Z,57.51
2023-05-20T03:33:59.382Z,57.52
2023-05-20T03:36:26.128Z,57.61
2023-05-20T03:38:52.727Z,57.32
2023-05-20T03:41:19.610Z,57.75
2023-05-20T03:43:46.377Z,57.55
2023-05-20T03:46:13.275Z,57.67
2023-05-20T03:48:41.148Z,57.61
2023-05-20T03:51:08.410Z,57.78
2023-05-20T03:53:35.224Z,57.86
2023-05-20T03:56:02.214Z,57.53
2023-05-20T03:58:31.324Z,57.42
2023-05-20T04:00:58.593Z,57.45
2023-05-20T04:03:26.147Z,57.35
2023-05-20T04:05:53.273Z,57.30
2023-05-20T04:08:22.130Z,57.65
2023-05-20T04:10:49.420Z,57.59
2023-05-20T04:13:16.427Z,57.74
2023-05-20T04:15:43.310Z,57.61
2023-05-20T04:18:12.303Z,57.42
2023-05-20T04:20:41.358Z,58.02
2023-05-20T04:23:09.177Z,57.62
2023-05-20T04:25:36.643Z,57.46
2023-05-20T04:28:04.704Z,57.28
2023-05-20T04:30:33.530Z,57.46
2023-05-20T04:33:03.679Z,57.54
2023-05-20T04:35:30.785Z,57.39
2023-05-20T04:38:02.217Z,57.67
2023-05-20T04:40:29.266Z,57.77
2023-05-20T04:42:57.767Z,57.85
2023-05-20T04:45:25.925Z,57.78
2023-05-20T04:47:53.440Z,57.58
2023-05-20T04:50:21.362Z,57.64
2023-05-20T04:52:48.224Z,57.79
2023-05-20T04:55:16.003Z,57.56
2023-05-20T04:57:43.638Z,57.68
2023-05-20T05:00:12.667Z,57.54
2023-05-20T05:02:40.762Z,57.65
2023-05-20T05:05:08.194Z,58.08
2023-05-20T05:07:35.109Z,57.82
2023-05-20T05:10:01.956Z,57.75
2023-05-20T05:12:30.969Z,57.72
2023-05-20T05:14:59.220Z,57.58
2023-05-20T05:17:26.887Z,57.55
2023-05-20T05:19:53.848Z,57.72
2023-05-20T05:22:20.703Z,57.45
2023-05-20T05:24:49.685Z,57.95
2023-05-20T05:27:16.928Z,57.63
2023-05-20T05:29:43.948Z,57.89
2023-05-20T05:32:10.636Z,57.76
2023-05-20T05:34:37.313Z,57.50
2023-05-20T05:37:04.298Z,57.51
2023-05-20T05:39:31.078Z,57.87
2023-05-20T05:41:57.900Z,57.67
2023-05-20T05:44:24.985Z,57.93
2023-05-20T05:46:51.744Z,57.63
2023-05-20T05:49:18.874Z,57.63
2023-05-20T05:51:45.599Z,57.87
2023-05-20T05:54:12.620Z,57.53
2023-05-20T05:56:39.608Z,57.30
2023-05-20T05:59:06.363Z,57.41
2023-05-20T06:01:33.273Z,57.43
2023-05-20T06:04:00.235Z,57.77
2023-05-20T06:06:27.189Z,57.55
2023-05-20T06:08:54.254Z,57.37
2023-05-20T06:11:21.886Z,57.23
2023-05-20T06:13:48.570Z,57.25
2023-05-20T06:16:15.645Z,57.63
2023-05-20T06:18:42.936Z,57.61
2023-05-20T06:21:09.689Z,57.83
2023-05-20T06:23:36.750Z,57.67
2023-05-20T06:26:05.924Z,57.30
2023-05-20T06:28:32.899Z,57.39
2023-05-20T06:30:59.818Z,57.30
2023-05-20T06:33:29.899Z,57.43
2023-05-20T06:36:01.877Z,57.18
2023-05-20T06:38:29.076Z,57.49
2023-05-20T06:40:55.821Z,57.41
2023-05-20T06:43:22.648Z,57.30
2023-05-20T06:45:54.842Z,57.19
2023-05-20T06:48:27.365Z,57.21
2023-05-20T06:50:54.442Z,57.33
2023-05-20T06:53:21.534Z,57.21
2023-05-20T06:55:48.298Z,57.33
2023-05-20T06:58:15.148Z,56.99
2023-05-20T07:00:43.379Z,57.36
2023-05-20T07:03:11.671Z,57.28
2023-05-20T07:05:39.321Z,57.25
2023-05-20T07:08:07.454Z,57.34
2023-05-20T07:10:34.636Z,57.01
2023-05-20T07:13:02.027Z,57.16
2023-05-20T07:15:28.650Z,57.40
2023-05-20T07:17:55.927Z,57.33
2023-05-20T07:20:22.695Z,56.87
2023-05-20T07:22:50.896Z,57.24
2023-05-20T07:25:30.742Z,57.32
2023-05-20T07:27:57.889Z,57.15
2023-05-20T07:30:24.976Z,56.93
2023-05-20T07:33:09.295Z,56.98
2023-05-20T07:35:36.648Z,56.97
2023-05-20T07:38:03.680Z,57.09
2023-05-20T07:40:30.930Z,57.08
2023-05-20T07:42:57.564Z,56.89
2023-05-20T07:45:25.025Z,56.87
2023-05-20T07:47:51.862Z,56.80
2023-05-20T07:50:18.858Z,56.92
2023-05-20T07:52:56.015Z,57.09
2023-05-20T07:55:26.504Z,56.93
2023-05-20T07:57:53.626Z,56.98
2023-05-20T08:00:22.229Z,56.90
2023-05-20T08:02:49.001Z,57.04
2023-05-20T08:05:22.845Z,56.67
2023-05-20T08:07:49.754Z,56.96
2023-05-20T08:10:17.656Z,57.05
2023-05-20T08:12:46.805Z,56.59
2023-05-20T08:15:14.071Z,56.76
2023-05-20T08:17:41.063Z,56.91
2023-05-20T08:20:09.531Z,56.49
2023-05-20T08:22:37.857Z,56.56
2023-05-20T08:25:07.228Z,56.79
2023-05-20T08:27:34.243Z,56.63
2023-05-20T08:30:01.239Z,56.69
2023-05-20T08:32:28.382Z,56.74
2023-05-20T08:34:55.264Z,56.98
2023-05-20T08:37:22.109Z,56.93
2023-05-20T08:39:50.010Z,56.71
2023-05-20T08:42:22.138Z,56.87
2023-05-20T08:44:50.112Z,57.15
2023-05-20T08:47:17.562Z,56.92
2023-05-20T08:49:44.235Z,56.57
2023-05-20T08:52:13.705Z,56.51
2023-05-20T08:54:50.639Z,56.88
2023-05-20T08:57:17.889Z,56.66
2023-05-20T08:59:47.021Z,56.59
2023-05-20T09:02:14.253Z,56.48
2023-05-20T09:04:41.224Z,56.62
2023-05-20T09:07:08.005Z,56.63
2023-05-20T09:09:35.724Z,56.51
2023-05-20T09:12:03.342Z,56.34
2023-05-20T09:14:32.752Z,56.66
2023-05-20T09:16:59.722Z,56.15
2023-05-20T09:19:26.566Z,56.19
2023-05-20T09:21:55.194Z,56.08
2023-05-20T09:24:26.897Z,56.12
2023-05-20T09:26:53.863Z,56.46
2023-05-20T09:29:21.804Z,56.08
2023-05-20T09:31:49.918Z,55.96
2023-05-20T09:34:17.697Z,55.92
2023-05-20T09:36:45.366Z,56.18
2023-05-20T09:39:17.125Z,55.81
2023-05-20T09:41:55.697Z,55.87
2023-05-20T09:44:23.559Z,55.90
2023-05-20T09:46:52.626Z,56.04
2023-05-20T09:49:21.360Z,55.80
2023-05-20T09:51:48.140Z,55.66
2023-05-20T09:54:18.169Z,56.04
2023-05-20T09:56:47.259Z,55.69
2023-05-20T09:59:18.817Z,55.89
2023-05-20T10:01:46.567Z,55.85
2023-05-20T10:04:16.661Z,55.90
2023-05-20T10:07:02.146Z,55.99
2023-05-20T10:09:37.898Z,56.02
2023-05-20T10:12:40.077Z,55.97
2023-05-20T10:15:30.531Z,55.98
2023-05-20T10:18:01.445Z,55.74
2023-05-20T10:20:28.568Z,55.81
2023-05-20T10:22:57.823Z,55.94
2023-05-20T10:25:28.247Z,55.98
2023-05-20T10:28:08.108Z,55.84
2023-05-20T10:30:36.112Z,55.57
2023-05-20T10:33:06.394Z,55.55
2023-05-20T10:35:33.671Z,55.52
2023-05-20T10:38:11.246Z,55.76
2023-05-20T10:40:38.163Z,55.56
2023-05-20T10:43:12.533Z,55.77
2023-05-20T10:45:52.319Z,55.83
2023-05-20T10:48:25.409Z,55.38
2023-05-20T10:50:56.889Z,55.63
2023-05-20T10:53:33.436Z,55.70
2023-05-20T10:56:01.495Z,55.68
2023-05-20T10:58:28.278Z,55.60
2023-05-20T11:00:56.261Z,55.81
2023-05-20T11:03:24.433Z,55.39
2023-05-20T11:05:51.828Z,55.71
2023-05-20T11:08:28.396Z,55.78
2023-05-20T11:10:59.483Z,55.49
2023-05-20T11:13:27.161Z,55.58
2023-05-20T11:15:54.312Z,55.72
2023-05-20T11:18:21.183Z,55.71
2023-05-20T11:20:47.932Z,55.59
2023-05-20T11:23:15.817Z,55.74
2023-05-20T11:25:42.838Z,55.65
2023-05-20T11:28:14.025Z,55.72
2023-05-20T11:30:45.132Z,55.57
2023-05-20T11:33:13.602Z,55.47
2023-05-20T11:35:49.207Z,55.72
2023-05-20T11:38:16.817Z,55.34
2023-05-20T11:40:51.264Z,55.65
2023-05-20T11:43:19.818Z,55.71
2023-05-20T11:45:52.539Z,55.60
2023-05-20T11:48:19.871Z,55.72
2023-05-20T11:50:48.319Z,55.34
2023-05-20T11:53:17.885Z,55.43
2023-05-20T11:55:52.810Z,55.56
2023-05-20T11:58:21.284Z,55.52
2023-05-20T12:00:53.128Z,55.44
2023-05-20T12:03:24.316Z,55.44
2023-05-20T12:05:51.572Z,55.72
2023-05-20T12:08:18.563Z,55.37
2023-05-20T12:10:45.455Z,55.53
2023-05-20T12:13:13.673Z,55.30
2023-05-20T12:15:40.937Z,55.51
2023-05-20T12:18:07.773Z,55.27
2023-05-20T12:20:35.281Z,55.46
2023-05-20T12:23:02.804Z,55.45
2023-05-20T12:25:29.673Z,55.12
2023-05-20T12:27:56.644Z,55.40
2023-05-20T12:30:24.443Z,55.36
2023-05-20T12:32:52.245Z,55.34
2023-05-20T12:35:46.118Z,55.36
2023-05-20T12:38:13.044Z,55.30
2023-05-20T12:40:39.949Z,55.30
2023-05-20T12:43:06.906Z,55.22
2023-05-20T12:45:33.595Z,55.31
2023-05-20T12:48:00.983Z,55.38
2023-05-20T12:50:28.078Z,54.99
2023-05-20T12:52:55.079Z,55.01
2023-05-20T12:55:21.852Z,55.20
2023-05-20T12:57:48.685Z,55.08
2023-05-20T13:00:16.070Z,55.11
2023-05-20T13:02:43.560Z,54.98
2023-05-20T13:05:11.294Z,55.31
2023-05-20T13:07:38.413Z,55.31
2023-05-20T13:10:07.101Z,55.40
2023-05-20T13:12:35.823Z,55.52
2023-05-20T13:15:03.255Z,55.39
2023-05-20T13:17:30.375Z,55.20
2023-05-20T13:19:57.027Z,55.43
2023-05-20T13:22:23.795Z,55.19
2023-05-20T13:24:50.618Z,55.05
2023-05-20T13:27:17.319Z,55.29
2023-05-20T13:29:43.980Z,55.54
2023-05-20T13:32:10.901Z,55.63
2023-05-20T13:34:38.808Z,55.47
2023-05-20T13:37:06.032Z,55.20
2023-05-20T13:39:32.791Z,55.59
2023-05-20T13:41:59.629Z,55.68
2023-05-20T13:44:26.460Z,55.30
2023-05-20T13:46:53.379Z,55.61
2023-05-20T13:49:21.208Z,55.45
2023-05-20T13:51:48.005Z,55.52
2023-05-20T13:54:14.985Z,55.63
2023-05-20T13:56:42.636Z,55.62
2023-05-20T13:59:09.288Z,55.48
2023-05-20T14:01:36.664Z,55.67
2023-05-20T14:04:04.635Z,55.61
2023-05-20T14:06:32.023Z,55.75
2023-05-20T14:08:58.785Z,55.36
2023-05-20T14:11:25.686Z,55.42
2023-05-20T14:13:52.408Z,55.67
2023-05-20T14:16:19.308Z,55.71
2023-05-20T14:18:46.175Z,55.49
2023-05-20T14:21:12.914Z,55.53
2023-05-20T14:23:44.347Z,55.32
2023-05-20T14:26:11.310Z,55.41
2023-05-20T14:28:38.173Z,55.46
2023-05-20T14:31:07.453Z,55.70
2023-05-20T14:33:35.811Z,55.62
2023-05-20T14:36:02.474Z,55.51
2023-05-20T14:38:29.274Z,55.80
2023-05-20T14:40:55.962Z,55.50
2023-05-20T14:43:22.637Z,55.52
2023-05-20T14:45:49.461Z,55.45
2023-05-20T14:48:16.344Z,55.35
2023-05-20T14:50:43.066Z,55.58
2023-05-20T14:53:09.744Z,55.36
2023-05-20T14:55:36.594Z,55.65
2023-05-20T14:58:03.351Z,55.64
2023-05-20T15:00:30.130Z,55.64
2023-05-20T15:02:56.871Z,55.41
2023-05-20T15:05:23.690Z,55.68
2023-05-20T15:07:51.519Z,55.80
2023-05-20T15:10:18.541Z,55.53
2023-05-20T15:12:45.732Z,55.85
2023-05-20T15:15:12.544Z,55.55
2023-05-20T15:17:39.464Z,55.63
2023-05-20T15:20:06.806Z,55.69
2023-05-20T15:22:33.637Z,55.66
2023-05-20T15:25:00.598Z,55.86
2023-05-20T15:27:27.294Z,55.88
2023-05-20T15:29:53.988Z,55.68
2023-05-20T15:32:20.776Z,55.59
2023-05-20T15:34:47.795Z,55.67
2023-05-20T15:37:14.681Z,55.70
2023-05-20T15:39:41.802Z,55.57
2023-05-20T15:42:14.048Z,55.61
2023-05-20T15:44:41.006Z,55.93
2023-05-20T15:47:07.711Z,55.71
2023-05-20T15:49:34.505Z,55.84
2023-05-20T15:52:03.938Z,55.64
2023-05-20T15:54:32.030Z,55.78
2023-05-20T15:56:58.887Z,55.78
2023-05-20T15:59:25.890Z,55.71
2023-05-20T16:01:52.741Z,55.99
2023-05-20T16:04:20.169Z,55.86
2023-05-20T16:06:47.342Z,55.97
2023-05-20T16:09:14.108Z,55.98
2023-05-20T16:11:41.050Z,56.15
2023-05-20T16:14:07.722Z,55.98
2023-05-20T16:16:36.067Z,56.11
2023-05-20T16:19:03.635Z,56.19
2023-05-20T16:21:31.315Z,56.13
2023-05-20T16:23:58.108Z,56.20
2023-05-20T16:26:26.131Z,56.13
2023-05-20T16:28:52.756Z,56.20
2023-05-20T16:31:19.553Z,56.29
2023-05-20T16:33:46.887Z,56.32
2023-05-20T16:36:13.849Z,56.17
2023-05-20T16:38:40.686Z,56.39
2023-05-20T16:41:07.328Z,56.05
2023-05-20T16:43:34.038Z,56.33
2023-05-20T16:46:01.061Z,56.15
2023-05-20T16:48:27.886Z,56.22
2023-05-20T16:50:54.743Z,56.29
2023-05-20T16:53:21.652Z,56.27
2023-05-20T16:55:48.235Z,56.10
2023-05-20T16:58:15.024Z,56.51
2023-05-20T17:00:41.814Z,56.05
2023-05-20T17:03:08.728Z,55.99
2023-05-20T17:05:35.394Z,56.08
2023-05-20T17:08:02.097Z,55.78
2023-05-20T17:10:29.590Z,56.02
2023-05-20T17:12:56.599Z,55.84
2023-05-20T17:15:23.697Z,55.84
2023-05-20T17:17:51.332Z,55.60
2023-05-20T17:20:18.126Z,55.73
2023-05-20T17:22:44.986Z,55.52
2023-05-20T17:25:14.314Z,55.81
2023-05-20T17:27:41.148Z,55.69
2023-05-20T17:30:08.318Z,55.75
2023-05-20T17:32:35.597Z,55.58
2023-05-20T17:35:02.722Z,55.80
2023-05-20T17:37:29.602Z,55.91
2023-05-20T17:39:56.635Z,55.96
2023-05-20T17:42:23.616Z,56.11
2023-05-20T17:44:56.552Z,55.95
2023-05-20T17:47:23.542Z,55.77
2023-05-20T17:49:50.611Z,55.88
2023-05-20T17:52:17.399Z,55.92
2023-05-20T17:54:44.098Z,55.89
2023-05-20T17:57:11.111Z,55.88
2023-05-20T17:59:42.036Z,55.95
2023-05-20T18:02:09.106Z,55.99
2023-05-20T18:04:35.964Z,55.78
2023-05-20T18:07:04.128Z,55.72
2023-05-20T18:09:31.198Z,56.03
2023-05-20T18:11:58.042Z,55.79
2023-05-20T18:14:26.588Z,55.81
2023-05-20T18:16:57.568Z,55.74
2023-05-20T18:19:25.312Z,55.68
2023-05-20T18:21:52.318Z,55.67
2023-05-20T18:24:20.548Z,55.61
2023-05-20T18:26:47.466Z,55.64
2023-05-20T18:29:14.383Z,55.60
2023-05-20T18:31:43.314Z,55.73
2023-05-20T18:34:10.796Z,55.70
2023-05-20T18:36:37.883Z,55.65
2023-05-20T18:39:04.985Z,55.51
2023-05-20T18:41:43.112Z,55.51
2023-05-20T18:44:15.012Z,55.25
2023-05-20T18:46:42.517Z,55.23
2023-05-20T18:49:10.670Z,55.09
2023-05-20T18:51:40.897Z,55.24
2023-05-20T18:54:07.735Z,55.44
2023-05-20T18:56:34.991Z,55.34
2023-05-20T18:59:01.866Z,55.25
2023-05-20T19:01:28.702Z,55.34
2023-05-20T19:03:55.747Z,55.51
2023-05-20T19:06:22.987Z,55.45
2023-05-20T19:08:49.972Z,55.62
2023-05-20T19:11:17.062Z,55.39
2023-05-20T19:13:43.826Z,55.37
2023-05-20T19:16:10.844Z,55.57
2023-05-20T19:18:37.817Z,55.71
2023-05-20T19:21:04.850Z,55.70
2023-05-20T19:23:32.506Z,55.87
2023-05-20T19:25:59.498Z,55.68
2023-05-20T19:28:26.231Z,55.55
2023-05-20T19:30:53.789Z,55.72
2023-05-20T19:33:20.913Z,55.58
2023-05-20T19:35:47.726Z,55.46
2023-05-20T19:38:14.672Z,55.78
2023-05-20T19:40:41.419Z,55.62
2023-05-20T19:43:08.027Z,55.82
2023-05-20T19:45:36.506Z,55.75
2023-05-20T19:48:06.514Z,55.63
2023-05-20T19:50:34.233Z,55.45
2023-05-20T19:53:03.405Z,55.61
2023-05-20T19:55:30.126Z,55.45
2023-05-20T19:57:57.303Z,55.52
2023-05-20T20:00:24.304Z,55.53
2023-05-20T20:02:51.326Z,55.65
2023-05-20T20:05:18.792Z,55.45
2023-05-20T20:07:46.037Z,55.55
2023-05-20T20:10:12.832Z,55.85
2023-05-20T20:12:39.560Z,55.83
2023-05-20T20:15:07.270Z,55.35
2023-05-20T20:17:34.108Z,55.66
2023-05-20T20:20:01.229Z,55.70
2023-05-20T20:22:28.016Z,55.76
2023-05-20T20:24:54.967Z,55.64
2023-05-20T20:27:23.773Z,55.36
2023-05-20T20:29:51.307Z,55.34
2023-05-20T20:32:18.713Z,55.27
2023-05-20T20:34:46.090Z,55.42
2023-05-20T20:37:15.266Z,55.76
2023-05-20T20:39:45.289Z,55.81
2023-05-20T20:42:12.338Z,55.93
2023-05-20T20:44:42.569Z,55.81
2023-05-20T20:47:10.064Z,55.77
2023-05-20T20:49:36.870Z,55.82
2023-05-20T20:52:03.719Z,56.01
2023-05-20T20:54:32.796Z,56.03
2023-05-20T20:57:00.045Z,56.13
2023-05-20T20:59:26.958Z,55.94
2023-05-20T21:01:54.787Z,55.97
2023-05-20T21:04:21.624Z,56.01
2023-05-20T21:06:48.369Z,56.11
2023-05-20T21:09:15.867Z,55.99
2023-05-20T21:11:42.936Z,56.17
2023-05-20T21:14:10.358Z,56.18
2023-05-20T21:16:37.376Z,56.16
2023-05-20T21:19:04.243Z,56.02
2023-05-20T21:21:31.147Z,56.15
2023-05-20T21:23:58.032Z,56.36
2023-05-20T21:26:25.777Z,56.03
2023-05-20T21:28:52.651Z,56.43
2023-05-20T21:31:19.508Z,56.43
2023-05-20T21:33:46.342Z,56.55
2023-05-20T21:36:13.405Z,56.21
2023-05-20T21:38:40.421Z,56.47
2023-05-20T21:41:07.873Z,56.39
2023-05-20T21:43:36.050Z,56.30
2023-05-20T21:46:03.020Z,56.30
2023-05-20T21:48:29.856Z,56.54
2023-05-20T21:50:56.661Z,56.23
2023-05-20T21:53:23.394Z,56.49
2023-05-20T21:55:50.564Z,56.30
2023-05-20T21:58:17.399Z,56.44
2023-05-20T22:00:45.099Z,56.57
2023-05-20T22:03:12.992Z,56.40
2023-05-20T22:05:41.093Z,56.52
2023-05-20T22:08:08.030Z,56.63
2023-05-20T22:10:36.523Z,56.56
2023-05-20T22:13:03.591Z,56.78
2023-05-20T22:15:31.450Z,56.76
2023-05-20T22:17:58.811Z,56.75
2023-05-20T22:20:25.913Z,56.94
2023-05-20T22:22:52.633Z,56.88
2023-05-20T22:25:19.521Z,56.99
2023-05-20T22:27:46.516Z,56.75
2023-05-20T22:30:13.634Z,57.01
2023-05-20T22:32:40.873Z,56.65
2023-05-20T22:35:08.177Z,56.93
2023-05-20T22:37:35.079Z,56.85
2023-05-20T22:40:02.060Z,57.01
2023-05-20T22:42:28.782Z,57.01
2023-05-20T22:44:55.603Z,57.32
2023-05-20T22:47:22.380Z,56.71
2023-05-20T22:49:49.182Z,57.03
2023-05-20T22:52:15.829Z,57.03
2023-05-20T22:54:42.701Z,56.85
2023-05-20T22:57:09.440Z,57.05
2023-05-20T22:59:36.583Z,57.09
2023-05-20T23:02:03.895Z,57.07
2023-05-20T23:04:30.725Z,56.92
2023-05-20T23:06:59.418Z,57.02
2023-05-20T23:09:26.418Z,57.29
2023-05-20T23:11:53.093Z,57.08
2023-05-20T23:14:20.198Z,56.94
2023-05-20T23:16:46.967Z,56.88
2023-05-20T23:19:13.938Z,56.91
2023-05-20T23:21:40.834Z,56.93
2023-05-20T23:24:07.575Z,57.17
2023-05-20T23:26:37.800Z,57.21
2023-05-20T23:29:05.276Z,57.15
2023-05-20T23:31:32.903Z,57.26
2023-05-20T23:34:00.992Z,57.26
2023-05-20T23:36:29.176Z,57.20
2023-05-20T23:38:56.707Z,57.64
2023-05-20T23:41:23.682Z,57.14
2023-05-20T23:43:50.792Z,57.35
2023-05-20T23:46:18.707Z,57.37
2023-05-20T23:48:48.292Z,57.60
2023-05-20T23:51:16.363Z,57.45
2023-05-20T23:53:44.469Z,57.73
2023-05-20T23:56:11.521Z,57.51
2023-05-20T23:58:38.500Z,57.56
